Time;durP1;ratioP1;P1;durP2;ratioP2;P2;SDS_P1;SDS_P2;PMS_P1;PMS_P2;Temp;Humidity;BMP_temperature;BMP_pressure;BME280_temperature;BME280_humidity;BME280_pressure;Samples;Min_cycle;Max_cycle;Signal;HPM_P1;HPM_P2
2022/10/01 00:00:21;;;;;;;11.07;6.18;;;11.60;99.90;;;;;;6247258;22;20015;-84
2022/10/01 00:02:47;;;;;;;11.82;6.68;;;11.60;99.90;;;;;;6275325;22;20053;-84
2022/10/01 00:05:12;;;;;;;11.95;6.80;;;11.50;99.90;;;;;;6274266;22;20011;-85
2022/10/01 00:07:40;;;;;;;12.85;7.15;;;11.50;99.90;;;;;;6248667;22;20153;-85
2022/10/01 00:10:07;;;;;;;13.35;7.43;;;12.50;99.90;;;;;;6247631;22;20103;-85
2022/10/01 00:12:33;;;;;;;12.15;7.53;;;11.30;99.90;;;;;;6275532;22;20015;-84
2022/10/01 00:14:59;;;;;;;12.57;7.60;;;11.30;99.90;;;;;;6275858;22;20011;-85
2022/10/01 00:17:25;;;;;;;12.95;7.45;;;11.20;99.90;;;;;;6274921;22;20086;-84
2022/10/01 00:19:50;;;;;;;16.50;7.50;;;11.20;99.90;;;;;;6248530;22;20427;-84
2022/10/01 00:22:17;;;;;;;13.82;8.18;;;12.10;99.90;;;;;;6275615;22;20039;-85
2022/10/01 00:24:46;;;;;;;13.55;8.05;;;11.00;99.90;;;;;;6274857;22;20335;-85
2022/10/01 00:27:12;;;;;;;12.30;7.80;;;11.00;99.90;;;;;;6248316;22;20020;-85
2022/10/01 00:29:44;;;;;;;14.85;7.82;;;11.00;99.90;;;;;;6247941;22;20015;-85
2022/10/01 00:32:10;;;;;;;14.70;8.52;;;11.70;99.90;;;;;;6275217;22;20502;-85
2022/10/01 00:34:35;;;;;;;12.95;8.35;;;10.90;99.90;;;;;;6248287;22;20098;-85
2022/10/01 00:37:01;;;;;;;14.50;9.52;;;10.80;99.90;;;;;;6275187;22;20051;-86
2022/10/01 00:39:26;;;;;;;15.38;10.13;;;10.80;99.90;;;;;;6248462;22;20023;-86
2022/10/01 00:41:52;;;;;;;18.02;10.80;;;10.80;99.90;;;;;;6248624;22;20012;-87
2022/10/01 00:44:35;;;;;;;16.70;10.57;;;10.70;99.90;;;;;;6274641;22;20082;-87
2022/10/01 00:47:30;;;;;;;15.50;9.50;;;11.10;99.90;;;;;;6248976;22;20520;-87
2022/10/01 00:50:27;;;;;;;14.38;9.30;;;10.70;99.90;;;;;;6248980;22;20444;-87
2022/10/01 00:53:00;;;;;;;14.38;8.88;;;10.60;99.90;;;;;;6252041;22;20019;-87
2022/10/01 00:55:35;;;;;;;14.23;9.50;;;11.30;99.90;;;;;;6249373;22;20122;-87
2022/10/01 00:58:02;;;;;;;13.93;8.57;;;10.60;99.90;;;;;;6247794;22;20031;-88
2022/10/01 01:00:29;;;;;;;14.75;8.70;;;11.10;99.90;;;;;;6249113;22;20015;-88
2022/10/01 01:02:55;;;;;;;16.25;9.77;;;10.60;99.90;;;;;;6248357;22;20339;-88
2022/10/01 01:05:22;;;;;;;16.95;10.25;;;9.20;99.90;;;;;;6249886;22;20024;-88
2022/10/01 01:07:51;;;;;;;15.57;9.38;;;10.50;99.90;;;;;;6228656;22;20104;-88
2022/10/01 01:10:23;;;;;;;15.82;9.35;;;10.80;99.90;;;;;;6276994;22;20062;-88
2022/10/01 01:13:12;;;;;;;16.35;9.82;;;11.10;99.90;;;;;;6249871;22;20478;-88
2022/10/01 01:16:13;;;;;;;16.63;10.43;;;10.50;99.90;;;;;;6250832;22;20081;-88
2022/10/01 01:19:00;;;;;;;16.52;9.63;;;10.50;99.90;;;;;;6252359;22;20012;-88
2022/10/01 01:21:51;;;;;;;14.73;9.77;;;10.40;99.90;;;;;;6250325;22;20050;-89
2022/10/01 01:24:42;;;;;;;18.20;11.50;;;10.40;99.90;;;;;;6248483;22;20022;-88
2022/10/01 01:27:30;;;;;;;17.08;10.40;;;10.40;99.90;;;;;;6276655;22;20020;-87
2022/10/01 01:30:22;;;;;;;16.73;10.85;;;10.40;99.90;;;;;;6250394;22;20015;-88
2022/10/01 01:33:03;;;;;;;16.35;10.93;;;10.40;99.90;;;;;;6242894;22;20066;-88
2022/10/01 01:35:52;;;;;;;16.10;10.50;;;10.40;99.90;;;;;;6251542;22;20016;-88
2022/10/01 01:38:27;;;;;;;17.33;11.05;;;10.40;99.90;;;;;;6248369;22;20086;-88
2022/10/01 01:40:57;;;;;;;17.92;10.70;;;10.20;99.90;;;;;;6248805;22;20015;-88
2022/10/01 01:49:33;;;;;;;18.88;11.07;;;10.30;99.90;;;;;;6260117;22;20049;-88
2022/10/01 01:52:17;;;;;;;18.13;10.90;;;10.30;99.90;;;;;;6277258;22;20015;-88
2022/10/01 01:54:46;;;;;;;18.50;11.25;;;10.30;99.90;;;;;;6249183;22;20008;-88
2022/10/01 01:57:13;;;;;;;17.02;10.57;;;10.30;99.90;;;;;;6277121;22;20027;-88
2022/10/01 01:59:40;;;;;;;16.80;11.07;;;10.30;99.90;;;;;;6250391;22;20432;-89
2022/10/01 02:02:09;;;;;;;18.40;11.63;;;10.30;99.90;;;;;;6275651;22;20094;-89
2022/10/01 02:04:52;;;;;;;18.30;11.20;;;10.20;99.90;;;;;;6248971;22;20018;-88
2022/10/01 02:07:33;;;;;;;21.65;11.63;;;10.30;99.90;;;;;;6249379;22;20016;-88
2022/10/01 02:10:14;;;;;;;19.73;11.82;;;10.30;99.90;;;;;;6250196;22;20016;-89
2022/10/01 02:13:02;;;;;;;18.67;11.73;;;10.30;99.90;;;;;;6281980;22;20058;-89
2022/10/01 02:15:58;;;;;;;17.67;11.32;;;10.30;99.90;;;;;;6249486;22;20012;-89
2022/10/01 02:18:32;;;;;;;18.58;11.50;;;10.20;99.90;;;;;;6249341;22;20344;-88
2022/10/01 02:21:33;;;;;;;21.10;12.45;;;10.20;99.90;;;;;;6276877;22;20039;-89
2022/10/01 02:24:16;;;;;;;20.15;11.73;;;10.20;99.90;;;;;;6201378;22;20020;-89
2022/10/01 02:26:44;;;;;;;20.23;11.93;;;10.20;99.90;;;;;;6249995;22;20011;-88
2022/10/01 02:29:15;;;;;;;19.20;12.00;;;10.20;99.90;;;;;;6275461;22;20020;-88
2022/10/01 02:31:41;;;;;;;19.05;12.00;;;10.60;99.90;;;;;;6277600;22;20015;-89
2022/10/01 02:34:07;;;;;;;19.40;11.70;;;10.20;99.90;;;;;;6276115;22;20266;-88
2022/10/01 02:36:35;;;;;;;18.58;11.40;;;10.30;99.90;;;;;;6248572;22;20011;-88
2022/10/01 02:39:02;;;;;;;19.25;12.40;;;11.30;99.90;;;;;;6249879;22;20062;-89
2022/10/01 02:41:34;;;;;;;18.77;11.35;;;10.30;99.90;;;;;;6276179;22;20337;-89
2022/10/01 02:44:19;;;;;;;18.42;11.68;;;10.20;99.90;;;;;;6275971;22;20451;-88
2022/10/01 02:46:51;;;;;;;19.25;12.15;;;10.20;99.90;;;;;;6256683;22;20279;-88
2022/10/01 02:49:17;;;;;;;17.67;11.85;;;10.20;99.90;;;;;;6251930;22;20031;-87
2022/10/01 02:51:56;;;;;;;18.02;11.85;;;10.20;99.90;;;;;;6249195;22;20019;-88
2022/10/01 02:54:59;;;;;;;18.40;10.98;;;10.20;99.90;;;;;;6276427;22;20012;-88
2022/10/01 02:57:28;;;;;;;18.65;10.93;;;10.20;99.90;;;;;;6248355;22;20022;-88
2022/10/01 02:59:58;;;;;;;17.92;11.13;;;10.20;99.90;;;;;;6249537;22;20022;-89
2022/10/01 03:02:26;;;;;;;16.83;11.00;;;10.30;99.90;;;;;;6223574;22;20065;-89
2022/10/01 03:04:58;;;;;;;16.77;9.90;;;10.20;99.90;;;;;;6248559;22;20340;-89
2022/10/01 03:07:33;;;;;;;15.73;8.82;;;11.10;99.90;;;;;;6277220;22;20020;-89
2022/10/01 03:10:12;;;;;;;15.40;9.43;;;10.30;99.90;;;;;;6249693;22;20018;-88
2022/10/01 03:12:42;;;;;;;15.30;9.60;;;11.30;99.90;;;;;;6248318;22;20022;-89
2022/10/01 03:15:08;;;;;;;14.02;8.68;;;10.30;99.90;;;;;;6248937;22;20016;-88
2022/10/01 03:17:36;;;;;;;14.80;8.93;;;10.40;99.90;;;;;;6249330;22;20023;-90
2022/10/01 03:20:05;;;;;;;14.65;8.63;;;10.40;99.90;;;;;;6276080;22;20016;-88
2022/10/01 03:22:31;;;;;;;12.85;7.90;;;10.10;99.90;;;;;;6258354;22;20019;-88
2022/10/01 03:24:57;;;;;;;13.93;7.88;;;10.40;99.90;;;;;;6278092;22;20444;-88
2022/10/01 03:27:23;;;;;;;12.27;7.45;;;10.50;99.90;;;;;;6248395;22;20102;-89
2022/10/01 03:29:49;;;;;;;13.40;7.28;;;10.80;99.90;;;;;;6249243;22;20015;-88
2022/10/01 03:32:15;;;;;;;12.20;7.53;;;10.50;99.90;;;;;;6276114;22;20011;-89
2022/10/01 03:34:41;;;;;;;14.73;7.03;;;10.50;99.90;;;;;;6248082;22;20023;-89
2022/10/01 03:37:06;;;;;;;12.20;6.80;;;10.50;99.90;;;;;;6248585;22;20045;-89
2022/10/01 03:39:32;;;;;;;13.10;6.55;;;10.50;99.90;;;;;;6275536;22;20008;-89
2022/10/01 03:41:58;;;;;;;10.90;6.15;;;10.50;99.90;;;;;;6275877;22;20475;-89
2022/10/01 03:44:24;;;;;;;11.20;6.10;;;10.50;99.90;;;;;;6249065;22;20012;-89
2022/10/01 03:46:49;;;;;;;12.50;5.97;;;10.50;99.90;;;;;;6247955;22;20024;-88
2022/10/01 03:49:15;;;;;;;11.05;5.97;;;10.50;99.90;;;;;;6249133;22;20520;-89
2022/10/01 03:51:41;;;;;;;12.27;5.85;;;10.50;99.90;;;;;;6249048;22;20085;-88
2022/10/01 03:54:07;;;;;;;11.65;6.05;;;10.50;99.90;;;;;;6275344;22;20015;-87
2022/10/01 03:56:34;;;;;;;10.50;5.80;;;10.50;99.90;;;;;;6249867;22;20022;-88
2022/10/01 03:59:00;;;;;;;10.65;5.63;;;10.50;99.90;;;;;;6253929;22;20012;-87
2022/10/01 04:01:29;;;;;;;10.20;5.38;;;10.50;99.90;;;;;;6247091;22;20081;-88
2022/10/01 04:03:58;;;;;;;10.80;5.40;;;10.50;99.90;;;;;;6274992;22;20016;-88
2022/10/01 04:06:23;;;;;;;10.05;5.20;;;10.50;99.90;;;;;;6247133;22;20022;-88
2022/10/01 04:08:49;;;;;;;10.90;5.57;;;10.50;99.90;;;;;;6247622;22;20008;-88
2022/10/01 04:11:15;;;;;;;10.90;5.63;;;10.50;99.90;;;;;;6248765;22;20012;-88
2022/10/01 04:13:40;;;;;;;10.38;5.72;;;10.50;99.90;;;;;;6248975;22;20444;-89
2022/10/01 04:16:06;;;;;;;11.20;5.80;;;10.50;99.90;;;;;;6247088;22;20018;-89
2022/10/01 04:18:35;;;;;;;11.00;5.93;;;10.50;99.90;;;;;;6248437;22;20020;-88
2022/10/01 04:21:01;;;;;;;11.70;5.93;;;10.50;99.90;;;;;;6275061;22;20050;-88
2022/10/01 04:23:26;;;;;;;10.85;5.75;;;11.30;99.90;;;;;;6247410;22;20027;-88
2022/10/01 04:25:52;;;;;;;10.90;6.13;;;10.50;99.90;;;;;;6248541;22;20042;-88
2022/10/01 04:28:18;;;;;;;12.32;5.88;;;10.50;99.90;;;;;;6248288;22;20026;-88
2022/10/01 04:30:45;;;;;;;11.90;6.03;;;10.50;99.90;;;;;;6248042;22;20015;-88
2022/10/01 04:33:15;;;;;;;12.27;6.60;;;10.50;99.90;;;;;;6249353;22;20030;-88
2022/10/01 04:35:44;;;;;;;10.85;6.10;;;10.50;99.90;;;;;;6250898;22;20020;-88
2022/10/01 04:38:14;;;;;;;10.32;6.00;;;10.50;99.90;;;;;;6275816;22;20030;-88
2022/10/01 04:40:39;;;;;;;12.85;6.38;;;10.60;99.90;;;;;;6248090;22;20019;-88
2022/10/01 04:43:08;;;;;;;11.05;6.05;;;10.50;99.90;;;;;;6247577;22;20023;-87
2022/10/01 04:45:35;;;;;;;10.88;5.68;;;10.60;99.90;;;;;;6248694;22;20016;-88
2022/10/01 04:48:01;;;;;;;10.20;5.60;;;10.60;99.90;;;;;;6248380;22;20019;-88
2022/10/01 04:50:26;;;;;;;9.90;5.20;;;10.50;99.90;;;;;;6273729;22;20095;-88
2022/10/01 04:52:52;;;;;;;10.95;5.30;;;10.60;99.90;;;;;;6248239;22;20023;-88
2022/10/01 04:55:19;;;;;;;9.80;5.18;;;10.60;99.90;;;;;;6274948;22;20494;-88
2022/10/01 04:57:46;;;;;;;9.52;4.80;;;10.60;99.90;;;;;;6274914;22;20012;-88
2022/10/01 05:00:16;;;;;;;10.35;4.90;;;10.60;99.90;;;;;;6275862;22;20086;-88
2022/10/01 05:02:45;;;;;;;9.75;4.80;;;11.00;99.90;;;;;;6275068;22;20019;-87
2022/10/01 05:05:11;;;;;;;10.15;4.90;;;10.60;99.90;;;;;;6246708;22;20325;-87
2022/10/01 05:07:38;;;;;;;9.27;4.60;;;10.70;99.90;;;;;;6248216;22;20095;-88
2022/10/01 05:10:05;;;;;;;9.52;4.60;;;10.70;99.90;;;;;;6276696;22;20320;-87
2022/10/01 05:12:31;;;;;;;9.60;4.60;;;10.70;99.90;;;;;;6246457;22;20023;-88
2022/10/01 05:14:57;;;;;;;11.68;5.47;;;10.70;99.90;;;;;;6278478;22;20087;-87
2022/10/01 05:17:23;;;;;;;10.10;5.20;;;10.20;99.90;;;;;;6248327;22;20015;-87
2022/10/01 05:19:49;;;;;;;10.10;5.18;;;10.80;99.90;;;;;;6247716;22;20012;-87
2022/10/01 05:22:15;;;;;;;9.20;4.60;;;10.70;99.90;;;;;;6248526;22;20375;-87
2022/10/01 05:24:42;;;;;;;9.45;4.82;;;10.80;99.90;;;;;;6248394;22;20023;-88
2022/10/01 05:27:11;;;;;;;10.63;4.53;;;10.80;99.90;;;;;;6246922;22;20019;-87
2022/10/01 05:29:37;;;;;;;11.10;5.28;;;10.80;99.90;;;;;;6248634;22;20332;-88
2022/10/01 05:32:03;;;;;;;9.63;4.85;;;10.80;99.90;;;;;;6247497;22;20024;-88
2022/10/01 05:34:29;;;;;;;9.93;4.90;;;11.90;99.90;;;;;;6248341;22;20340;-88
2022/10/01 05:36:55;;;;;;;9.85;5.00;;;10.90;99.90;;;;;;6248302;22;20026;-88
2022/10/01 05:39:20;;;;;;;9.80;4.97;;;10.90;99.90;;;;;;6246948;22;20024;-88
2022/10/01 05:41:46;;;;;;;10.32;5.18;;;11.30;99.90;;;;;;6248240;22;20102;-88
2022/10/01 05:44:11;;;;;;;10.23;5.63;;;10.90;99.90;;;;;;6275907;22;20324;-88
2022/10/01 05:46:37;;;;;;;10.02;5.25;;;11.00;99.90;;;;;;6278782;22;20023;-88
2022/10/01 05:49:04;;;;;;;10.63;5.47;;;11.00;99.90;;;;;;6277454;22;20011;-88
2022/10/01 05:51:29;;;;;;;11.20;5.30;;;11.00;99.90;;;;;;6277118;22;20026;-88
2022/10/01 05:53:57;;;;;;;10.95;5.65;;;11.00;99.90;;;;;;6249468;22;20016;-88
2022/10/01 05:56:24;;;;;;;10.98;5.43;;;11.10;99.90;;;;;;6277123;22;20023;-88
2022/10/01 05:58:50;;;;;;;12.05;5.75;;;11.10;99.90;;;;;;6249971;22;20015;-89
2022/10/01 06:01:15;;;;;;;13.18;6.30;;;11.10;99.90;;;;;;6248716;22;20102;-89
2022/10/01 06:03:41;;;;;;;10.57;6.03;;;11.10;99.90;;;;;;6250306;22;20175;-85
2022/10/01 06:06:07;;;;;;;12.13;6.43;;;11.10;99.90;;;;;;6249500;22;20022;-86
2022/10/01 06:08:34;;;;;;;12.93;6.20;;;11.10;99.90;;;;;;6276514;22;20083;-87
2022/10/01 06:11:01;;;;;;;11.40;6.65;;;12.10;99.90;;;;;;6249578;22;20023;-85
2022/10/01 06:13:28;;;;;;;10.75;6.10;;;11.20;99.90;;;;;;6276711;22;20027;-87
2022/10/01 06:15:56;;;;;;;12.30;6.70;;;11.30;99.90;;;;;;6248843;22;20016;-85
2022/10/01 06:18:22;;;;;;;11.90;7.03;;;11.30;99.90;;;;;;6249461;22;20027;-86
2022/10/01 06:20:48;;;;;;;11.75;7.00;;;11.30;99.90;;;;;;6249293;22;20008;-86
2022/10/01 06:23:14;;;;;;;13.88;7.60;;;11.30;99.90;;;;;;6275683;22;20313;-86
2022/10/01 06:25:42;;;;;;;11.65;7.18;;;11.40;99.90;;;;;;6249851;22;20016;-86
2022/10/01 06:28:18;;;;;;;13.15;8.05;;;11.40;99.90;;;;;;6249029;22;20031;-87
2022/10/01 06:34:41;;;;;;;12.80;7.55;;;11.60;99.90;;;;;;6124015;23;20078;-85
2022/10/01 06:37:09;;;;;;;13.73;7.68;;;13.10;99.90;;;;;;6177332;22;20052;-85
2022/10/01 06:39:37;;;;;;;14.15;7.95;;;11.60;99.90;;;;;;6250045;22;20022;-86
2022/10/01 06:42:03;;;;;;;12.60;7.97;;;12.30;99.90;;;;;;6277269;22;20016;-87
2022/10/01 06:44:29;;;;;;;13.57;8.15;;;11.80;99.90;;;;;;6248364;22;20022;-87
2022/10/01 06:46:54;;;;;;;13.60;8.50;;;12.90;99.90;;;;;;6249201;22;20526;-86
2022/10/01 06:49:21;;;;;;;13.27;8.43;;;11.70;99.90;;;;;;6275936;22;20015;-87
2022/10/01 06:54:33;;;;;;;15.50;9.23;;;11.70;99.90;;;;;;6249375;22;20023;-86
2022/10/01 06:56:59;;;;;;;14.88;8.20;;;11.80;99.90;;;;;;6275249;22;20091;-87
2022/10/01 06:59:25;;;;;;;16.35;9.90;;;11.90;99.90;;;;;;6248798;22;20379;-84
2022/10/01 07:01:52;;;;;;;29.95;19.60;;;11.90;99.90;;;;;;6276337;22;20313;-84
2022/10/01 07:04:19;;;;;;;24.20;16.73;;;11.90;99.90;;;;;;6247505;22;20027;-84
2022/10/01 07:06:44;;;;;;;21.27;11.63;;;12.40;99.90;;;;;;6249065;22;20022;-84
2022/10/01 07:09:10;;;;;;;15.07;9.95;;;12.00;99.90;;;;;;6248547;22;20047;-84
2022/10/01 07:11:40;;;;;;;17.10;12.18;;;11.90;99.90;;;;;;6248315;22;20026;-84
2022/10/01 07:14:07;;;;;;;15.60;10.30;;;12.60;99.90;;;;;;6248979;22;20096;-84
2022/10/01 07:16:33;;;;;;;15.50;9.13;;;12.00;99.90;;;;;;6248565;22;20015;-85
2022/10/01 07:19:06;;;;;;;15.02;10.05;;;12.00;99.90;;;;;;6275471;22;20153;-84
2022/10/01 07:21:31;;;;;;;17.63;9.88;;;12.10;99.90;;;;;;6248980;22;20098;-84
2022/10/01 07:23:57;;;;;;;16.20;11.20;;;12.20;99.90;;;;;;6248975;22;20047;-84
2022/10/01 07:36:50;;;;;;;18.55;10.63;;;12.50;99.90;;;;;;6263635;22;20032;-84
2022/10/01 07:39:16;;;;;;;18.58;12.23;;;13.90;99.90;;;;;;6275337;22;20011;-84
2022/10/01 07:42:00;;;;;;;;;;;12.60;99.90;;;;;;6231096;22;20022;-84
2022/10/01 07:44:32;;;;;;;19.67;14.05;;;14.00;99.90;;;;;;6275779;22;19919;-84
2022/10/01 07:46:58;;;;;;;23.77;16.02;;;13.00;99.90;;;;;;6275360;22;20004;-84
2022/10/01 07:49:24;;;;;;;22.30;14.02;;;14.00;99.90;;;;;;6248198;22;20051;-84
2022/10/01 07:51:59;;;;;;;19.02;11.50;;;12.80;99.90;;;;;;6275822;22;20015;-84
2022/10/01 07:54:25;;;;;;;19.65;11.73;;;12.80;99.90;;;;;;6273218;22;20473;-86
2022/10/01 07:56:58;;;;;;;15.57;9.80;;;13.90;99.90;;;;;;6276062;22;20039;-83
2022/10/01 07:59:26;;;;;;;20.10;10.55;;;12.80;99.90;;;;;;6275831;22;20051;-82
2022/10/01 08:01:52;;;;;;;20.30;10.32;;;12.90;99.90;;;;;;6247481;22;20023;-84
2022/10/01 08:07:07;;;;;;;14.60;9.82;;;13.60;99.90;;;;;;6274862;22;20015;-84
2022/10/01 08:09:33;;;;;;;15.02;9.60;;;13.00;99.90;;;;;;6275528;22;20024;-84
2022/10/01 08:12:01;;;;;;;18.55;11.27;;;13.50;99.90;;;;;;6275851;22;20019;-84
2022/10/01 08:14:29;;;;;;;18.63;9.95;;;13.20;99.90;;;;;;6246964;22;20050;-84
2022/10/01 08:16:55;;;;;;;14.93;10.02;;;13.30;99.90;;;;;;6248231;22;20018;-84
2022/10/01 08:19:20;;;;;;;15.45;9.07;;;13.40;99.90;;;;;;6274759;22;20090;-85
2022/10/01 08:21:46;;;;;;;16.23;12.15;;;14.00;99.90;;;;;;6272852;22;20395;-83
2022/10/01 08:24:11;;;;;;;18.40;8.75;;;13.50;99.90;;;;;;6247995;22;20498;-83
2022/10/01 08:26:37;;;;;;;14.80;8.60;;;13.60;99.90;;;;;;6276002;22;20046;-83
2022/10/01 08:29:03;;;;;;;16.58;10.40;;;13.70;99.90;;;;;;6246618;22;20347;-84
2022/10/01 08:31:29;;;;;;;21.60;7.25;;;13.70;99.90;;;;;;6247154;22;20027;-83
2022/10/01 08:33:55;;;;;;;15.20;8.23;;;13.80;99.90;;;;;;6248043;22;20042;-84
2022/10/01 08:36:21;;;;;;;14.02;6.55;;;13.80;99.90;;;;;;6246424;22;20474;-84
2022/10/01 08:38:47;;;;;;;14.93;6.68;;;14.50;99.90;;;;;;6248891;22;20094;-84
2022/10/01 08:41:44;;;;;;;12.25;6.95;;;13.90;99.90;;;;;;6275101;22;20398;-84
2022/10/01 08:44:18;;;;;;;23.02;7.72;;;13.90;99.90;;;;;;6256578;22;20067;-84
2022/10/01 08:46:46;;;;;;;16.23;7.20;;;14.10;99.90;;;;;;6249859;22;20047;-84
2022/10/01 08:49:16;;;;;;;14.35;7.10;;;14.30;99.90;;;;;;6248256;22;20343;-84
2022/10/01 08:51:47;;;;;;;16.13;6.90;;;14.10;99.90;;;;;;6275424;22;20018;-84
2022/10/01 08:54:22;;;;;;;16.02;8.30;;;14.20;99.90;;;;;;6248073;22;20101;-84
2022/10/01 08:56:49;;;;;;;15.10;8.20;;;14.30;99.90;;;;;;6247569;22;20016;-84
2022/10/01 08:59:48;;;;;;;21.33;13.27;;;14.40;99.90;;;;;;6275518;22;20015;-84
2022/10/01 09:02:38;;;;;;;12.00;5.70;;;14.40;99.90;;;;;;6221000;22;20031;-84
2022/10/01 09:05:11;;;;;;;12.45;5.70;;;14.90;99.90;;;;;;6229415;22;20015;-84
2022/10/01 09:08:06;;;;;;;14.48;5.53;;;14.80;99.90;;;;;;6275883;22;20466;-86
2022/10/01 09:10:39;;;;;;;15.30;5.78;;;14.90;99.90;;;;;;6247355;22;20020;-86
2022/10/01 09:13:10;;;;;;;14.37;6.37;;;15.90;99.90;;;;;;6248102;22;20086;-86
2022/10/01 09:15:49;;;;;;;20.70;9.07;;;14.90;99.90;;;;;;6247587;22;20016;-86
2022/10/01 09:18:27;;;;;;;17.45;6.38;;;14.90;99.90;;;;;;6246966;22;20011;-86
2022/10/01 09:20:59;;;;;;;14.85;6.28;;;14.90;99.90;;;;;;6274450;22;20343;-86
2022/10/01 09:23:49;;;;;;;12.77;4.07;;;15.80;99.90;;;;;;6219779;23;20456;-86
2022/10/01 09:26:15;;;;;;;18.52;7.57;;;15.10;99.90;;;;;;6218190;23;20016;-86
2022/10/01 09:29:14;;;;;;;14.50;4.63;;;15.00;99.90;;;;;;6219739;23;20059;-86
2022/10/01 09:31:45;;;;;;;15.38;3.63;;;16.30;99.90;;;;;;6217959;23;20019;-87
2022/10/01 09:34:25;;;;;;;21.20;10.50;;;14.60;99.90;;;;;;6217208;23;20353;-83
2022/10/01 09:37:20;;;;;;;15.48;4.60;;;15.60;99.90;;;;;;6246012;23;20016;-84
2022/10/01 09:40:18;;;;;;;28.45;13.95;;;15.00;99.90;;;;;;6218279;23;20023;-84
2022/10/01 09:42:46;;;;;;;14.60;5.22;;;15.10;99.90;;;;;;6218609;23;20475;-84
2022/10/01 09:45:14;;;;;;;18.23;8.18;;;15.10;99.90;;;;;;6217148;23;20352;-86
2022/10/01 09:47:44;;;;;;;12.32;3.75;;;15.10;99.90;;;;;;6220331;23;20017;-86
2022/10/01 09:52:49;;;;;;;11.77;3.10;;;15.20;99.90;;;;;;6238084;22;20023;-83
2022/10/01 09:55:39;;;;;;;13.05;4.82;;;16.50;99.90;;;;;;6249541;22;20492;-84
2022/10/01 09:58:22;;;;;;;12.55;4.45;;;16.60;99.90;;;;;;6276447;22;20020;-83
2022/10/01 10:00:50;;;;;;;23.63;11.02;;;15.20;99.90;;;;;;6248446;22;20016;-84
2022/10/01 10:03:29;;;;;;;21.30;10.65;;;15.20;99.90;;;;;;6276647;22;20022;-84
2022/10/01 10:05:58;;;;;;;12.82;6.28;;;15.20;99.90;;;;;;6276893;22;20007;-84
2022/10/01 10:08:30;;;;;;;14.65;5.85;;;16.10;99.90;;;;;;6248711;22;20087;-84
2022/10/01 10:11:01;;;;;;;10.27;3.22;;;16.00;99.90;;;;;;6276794;22;20019;-84
2022/10/01 10:13:34;;;;;;;8.18;2.53;;;15.90;99.90;;;;;;6275437;22;20085;-84
2022/10/01 10:16:09;;;;;;;8.20;2.67;;;16.70;99.90;;;;;;6249122;22;20034;-83
2022/10/01 10:18:37;;;;;;;8.65;2.40;;;16.30;99.90;;;;;;6249450;22;20065;-83
2022/10/01 10:21:14;;;;;;;10.68;2.78;;;16.40;99.90;;;;;;6248247;22;20091;-83
2022/10/01 10:23:51;;;;;;;8.40;2.40;;;16.50;99.90;;;;;;6249734;22;20455;-83
2022/10/01 10:26:32;;;;;;;9.25;2.40;;;16.30;99.90;;;;;;6249366;22;20026;-83
2022/10/01 10:29:00;;;;;;;8.23;2.47;;;16.50;99.90;;;;;;6248642;22;20066;-84
2022/10/01 10:31:34;;;;;;;9.13;2.25;;;17.00;99.90;;;;;;6280251;22;20016;-84
2022/10/01 10:34:16;;;;;;;9.55;2.30;;;17.30;99.90;;;;;;6249540;22;20456;-82
2022/10/01 10:36:44;;;;;;;7.53;1.90;;;17.50;99.90;;;;;;6275999;22;20039;-82
2022/10/01 10:39:22;;;;;;;12.82;2.35;;;17.70;99.90;;;;;;6249438;22;20022;-83
2022/10/01 10:41:50;;;;;;;8.75;2.03;;;17.20;99.90;;;;;;6247300;22;20020;-82
2022/10/01 10:44:20;;;;;;;7.63;1.90;;;17.20;99.90;;;;;;6249233;22;20007;-82
2022/10/01 10:46:47;;;;;;;7.68;2.13;;;17.60;99.90;;;;;;6249480;22;20103;-82
2022/10/01 10:49:28;;;;;;;10.57;2.22;;;17.40;99.90;;;;;;6247516;22;20343;-83
2022/10/01 10:51:56;;;;;;;9.75;2.30;;;17.90;99.90;;;;;;6248793;22;20008;-82
2022/10/01 10:54:24;;;;;;;8.35;2.30;;;18.30;99.90;;;;;;6248690;22;20020;-83
2022/10/01 10:57:20;;;;;;;8.73;2.40;;;16.50;99.90;;;;;;6274896;22;20338;-82
2022/10/01 11:00:00;;;;;;;9.63;2.30;;;16.00;99.90;;;;;;6273068;22;20054;-84
2022/10/01 11:02:32;;;;;;;8.77;2.10;;;15.60;99.90;;;;;;6275790;22;20449;-84
2022/10/01 11:05:18;;;;;;;10.63;2.25;;;15.20;99.90;;;;;;6249016;22;20015;-83
2022/10/01 11:07:45;;;;;;;7.75;2.00;;;15.20;99.90;;;;;;6277476;22;20054;-86
2022/10/01 11:10:34;;;;;;;11.00;2.50;;;14.40;99.90;;;;;;6248789;22;20016;-84
2022/10/01 11:13:36;;;;;;;11.10;2.72;;;14.20;99.90;;;;;;6276751;22;20043;-84
2022/10/01 11:16:34;;;;;;;12.85;2.72;;;13.90;99.90;;;;;;6249146;22;20046;-84
2022/10/01 11:19:18;;;;;;;11.15;2.70;;;13.80;99.90;;;;;;6248647;22;20008;-82
2022/10/01 11:21:58;;;;;;;8.95;2.30;;;13.90;99.90;;;;;;6276079;22;20041;-83
2022/10/01 11:25:00;;;;;;;9.52;2.97;;;13.50;99.90;;;;;;6248014;22;20019;-84
2022/10/01 11:27:41;;;;;;;7.00;1.90;;;13.30;99.90;;;;;;6248443;22;20581;-84
2022/10/01 11:30:33;;;;;;;6.10;2.00;;;13.20;99.90;;;;;;6275971;22;20352;-84
2022/10/01 11:33:25;;;;;;;9.07;3.10;;;13.10;99.90;;;;;;6267929;22;20336;-85
2022/10/01 11:36:30;;;;;;;11.93;3.70;;;13.00;99.90;;;;;;6275493;22;20439;-84
2022/10/01 11:39:02;;;;;;;10.82;3.95;;;13.10;99.90;;;;;;6248240;22;20020;-85
2022/10/01 11:41:37;;;;;;;8.68;2.20;;;13.20;99.90;;;;;;6248747;22;20100;-83
2022/10/01 11:44:12;;;;;;;11.07;3.15;;;13.30;99.90;;;;;;6248209;22;20022;-83
2022/10/01 11:46:48;;;;;;;10.10;2.72;;;13.60;99.90;;;;;;6248113;22;20074;-84
2022/10/01 11:49:51;;;;;;;9.88;2.10;;;13.80;99.90;;;;;;6276127;22;20038;-83
2022/10/01 11:52:26;;;;;;;14.38;4.00;;;13.80;99.90;;;;;;6247284;22;20019;-83
2022/10/01 11:58:51;;;;;;;8.80;2.45;;;13.70;99.90;;;;;;6248333;22;20062;-83
2022/10/01 12:01:32;;;;;;;10.27;2.63;;;13.60;99.90;;;;;;6248303;22;20016;-83
2022/10/01 12:04:26;;;;;;;11.98;3.72;;;13.80;99.90;;;;;;6248732;22;20169;-83
2022/10/01 12:07:13;;;;;;;;;;;14.00;99.90;;;;;;6248179;22;20016;-83
2022/10/01 12:09:58;;;;;;;11.75;3.22;;;14.10;99.90;;;;;;6247768;22;19919;-84
2022/10/01 12:12:34;;;;;;;12.07;3.97;;;14.30;99.90;;;;;;6248000;22;20012;-82
2022/10/01 12:15:18;;;;;;;9.73;2.83;;;14.50;99.90;;;;;;6248006;22;20069;-83
2022/10/01 12:17:52;;;;;;;9.65;3.20;;;14.70;99.90;;;;;;6276075;22;20058;-82
2022/10/01 12:22:55;;;;;;;8.85;2.08;;;15.10;99.90;;;;;;6237979;22;20042;-82
2022/10/01 12:25:27;;;;;;;10.13;2.88;;;16.40;99.90;;;;;;6275341;22;20043;-83
2022/10/01 12:28:21;;;;;;;11.60;3.40;;;15.40;99.90;;;;;;6274918;22;20027;-83
2022/10/01 12:30:59;;;;;;;14.60;3.85;;;15.60;99.90;;;;;;6247993;22;20046;-83
2022/10/01 12:33:40;;;;;;;11.65;2.80;;;16.90;99.90;;;;;;6227572;22;20020;-83
2022/10/01 12:36:36;;;;;;;10.73;2.80;;;17.30;99.90;;;;;;6246898;22;20059;-83
2022/10/01 12:39:15;;;;;;;17.98;5.97;;;16.20;99.90;;;;;;6248755;22;20051;-83
2022/10/01 12:42:04;;;;;;;15.23;4.68;;;16.40;99.90;;;;;;6247495;22;20415;-83
2022/10/01 12:44:43;;;;;;;12.65;2.97;;;17.00;99.90;;;;;;6248069;22;20095;-83
2022/10/01 12:47:27;;;;;;;15.50;5.55;;;16.00;99.90;;;;;;6275494;22;20037;-83
2022/10/01 12:49:58;;;;;;;;;;;15.70;99.90;;;;;;6275343;22;20018;-83
2022/10/01 12:52:48;;;;;;;12.40;3.15;;;15.40;99.90;;;;;;6247984;22;19953;-82
2022/10/01 12:55:46;;;;;;;24.05;10.88;;;15.20;99.90;;;;;;6276023;22;20057;-83
2022/10/01 13:01:39;;;;;;;14.00;4.20;;;15.20;99.90;;;;;;6247296;23;20020;-84
2022/10/01 13:04:59;;;;;;;11.93;2.97;;;15.20;99.90;;;;;;6246538;23;20128;-86
2022/10/01 13:07:48;;;;;;;12.80;3.65;;;14.80;99.90;;;;;;6209272;22;20039;-87
2022/10/01 13:10:44;;;;;;;10.65;2.53;;;14.60;99.90;;;;;;6243751;23;20074;-85
2022/10/01 13:13:26;;;;;;;18.65;4.88;;;14.50;99.90;;;;;;6245061;23;20016;-85
2022/10/01 13:16:07;;;;;;;19.95;6.97;;;14.60;99.90;;;;;;6246809;22;20079;-85
2022/10/01 13:19:04;;;;;;;18.70;7.07;;;14.60;99.90;;;;;;6243093;23;20016;-85
2022/10/01 13:21:52;;;;;;;22.27;8.32;;;14.50;99.90;;;;;;6245367;23;20066;-85
2022/10/01 13:24:39;;;;;;;30.27;13.15;;;14.60;99.90;;;;;;6243308;23;20048;-86
2022/10/01 13:27:18;;;;;;;23.42;8.77;;;14.50;99.90;;;;;;6245439;23;20023;-86
2022/10/01 13:30:01;;;;;;;16.40;5.00;;;14.50;99.90;;;;;;6245956;23;20096;-86
2022/10/01 13:33:10;;;;;;;21.35;6.15;;;14.50;99.90;;;;;;6253253;22;20067;-86
2022/10/01 13:36:09;;;;;;;14.20;3.60;;;14.50;99.90;;;;;;6277500;22;20020;-85
2022/10/01 13:38:50;;;;;;;26.83;9.75;;;14.40;99.90;;;;;;6248354;22;20019;-86
2022/10/01 13:48:49;;;;;;;13.45;4.10;;;14.40;99.90;;;;;;6250017;22;20016;-86
2022/10/01 13:51:15;;;;;;;14.02;4.05;;;15.70;99.90;;;;;;6249455;22;20020;-86
2022/10/01 13:58:09;;;;;;;15.88;3.10;;;14.90;99.90;;;;;;6276839;22;20014;-87